createdAt,value
2018-07-13T00:01:34.189Z,101598.02
2018-07-13T00:04:03.154Z,101605.55
2018-07-13T00:06:32.024Z,101602.81
2018-07-13T00:09:00.903Z,101608.10
2018-07-13T00:11:38.776Z,101609.98
2018-07-13T00:14:21.366Z,101606.39
2018-07-13T00:16:51.402Z,101609.73
2018-07-13T00:19:20.691Z,101604.92
2018-07-13T00:21:49.535Z,101603.72
2018-07-13T00:24:18.424Z,101612.29
2018-07-13T00:26:47.293Z,101612.61
2018-07-13T00:29:16.146Z,101615.00
2018-07-13T00:31:45.525Z,101618.38
2018-07-13T00:34:14.396Z,101617.67
2018-07-13T00:36:43.224Z,101622.91
2018-07-13T00:39:14.841Z,101624.05
2018-07-13T00:41:43.697Z,101619.89
2018-07-13T00:44:12.583Z,101625.12
2018-07-13T00:46:41.432Z,101625.23
2018-07-13T00:49:10.281Z,101621.42
2018-07-13T00:51:39.145Z,101618.58
2018-07-13T00:55:03.972Z,101628.82
2018-07-13T00:57:32.833Z,101626.53
2018-07-13T01:00:01.748Z,101632.01
2018-07-13T01:02:30.572Z,101626.03
2018-07-13T01:04:59.443Z,101627.56
2018-07-13T01:07:28.284Z,101628.58
2018-07-13T01:09:57.137Z,101629.03
2018-07-13T01:12:26.027Z,101634.99
2018-07-13T01:14:54.917Z,101630.73
2018-07-13T01:17:29.875Z,101631.31
2018-07-13T01:19:58.763Z,101633.28
2018-07-13T01:22:27.614Z,101638.58
2018-07-13T01:24:56.460Z,101638.75
2018-07-13T01:27:28.004Z,101635.50
2018-07-13T01:29:57.639Z,101640.25
2018-07-13T01:32:26.624Z,101630.96
2018-07-13T01:34:55.712Z,101640.05
2018-07-13T01:37:24.589Z,101644.35
2018-07-13T01:39:53.445Z,101639.03
2018-07-13T01:42:22.292Z,101636.14
2018-07-13T01:44:51.131Z,101636.92
2018-07-13T01:47:19.999Z,101640.18
2018-07-13T01:49:48.824Z,101630.69
2018-07-13T01:52:17.719Z,101640.18
2018-07-13T01:54:46.572Z,101635.70
2018-07-13T01:57:15.422Z,101629.16
2018-07-13T01:59:44.284Z,101631.48
2018-07-13T02:02:13.145Z,101630.05
2018-07-13T02:04:41.994Z,101626.76
2018-07-13T02:07:10.872Z,101630.69
2018-07-13T02:09:39.730Z,101630.84
2018-07-13T02:12:08.693Z,101631.84
2018-07-13T02:14:37.452Z,101627.45
2018-07-13T02:17:06.792Z,101625.87
2018-07-13T02:19:35.645Z,101622.31
2018-07-13T02:22:11.805Z,101624.19
2018-07-13T02:24:40.665Z,101621.91
2018-07-13T02:27:09.681Z,101614.02
2018-07-13T02:29:38.522Z,101624.25
2018-07-13T02:32:07.400Z,101617.84
2018-07-13T02:34:36.241Z,101618.53
2018-07-13T02:37:05.472Z,101617.67
2018-07-13T02:39:34.297Z,101618.27
2018-07-13T02:42:03.357Z,101616.55
2018-07-13T02:44:32.549Z,101622.08
2018-07-13T02:47:01.399Z,101620.12
2018-07-13T02:49:30.419Z,101628.26
2018-07-13T02:51:59.268Z,101624.93
2018-07-13T02:54:28.129Z,101635.59
2018-07-13T02:56:56.991Z,101629.73
2018-07-13T02:59:25.831Z,101637.94
2018-07-13T03:01:54.687Z,101642.80
2018-07-13T03:04:23.540Z,101641.86
2018-07-13T03:06:53.871Z,101641.16
2018-07-13T03:09:22.711Z,101643.20
2018-07-13T03:11:51.651Z,101651.63
2018-07-13T03:14:20.539Z,101653.86
2018-07-13T03:16:49.379Z,101653.97
2018-07-13T03:19:18.212Z,101650.87
2018-07-13T03:21:47.059Z,101657.13
2018-07-13T03:24:15.890Z,101655.36
2018-07-13T03:26:44.834Z,101656.91
2018-07-13T03:29:21.166Z,101658.59
2018-07-13T03:31:50.026Z,101662.37
2018-07-13T03:34:18.902Z,101664.38
2018-07-13T03:36:47.776Z,101665.03
2018-07-13T03:39:16.616Z,101668.41
2018-07-13T03:41:45.489Z,101669.52
2018-07-13T03:44:14.341Z,101668.39
2018-07-13T03:46:43.201Z,101673.06
2018-07-13T03:49:12.079Z,101672.08
2018-07-13T03:51:44.121Z,101675.69
2018-07-13T03:54:13.031Z,101679.16
2018-07-13T03:56:41.807Z,101669.88
2018-07-13T03:59:10.662Z,101673.84
2018-07-13T04:01:39.498Z,101671.11
2018-07-13T04:04:08.359Z,101676.42
2018-07-13T04:06:37.275Z,101677.98
2018-07-13T04:09:08.387Z,101679.70
2018-07-13T04:11:37.241Z,101679.05
2018-07-13T04:14:06.873Z,101677.05
2018-07-13T04:16:35.729Z,101679.69
2018-07-13T04:19:04.774Z,101685.22
2018-07-13T04:21:33.663Z,101681.20
2018-07-13T04:24:02.534Z,101680.10
2018-07-13T04:26:31.387Z,101679.86
2018-07-13T04:29:00.228Z,101675.84
2018-07-13T04:31:29.072Z,101667.50
2018-07-13T04:34:01.239Z,101670.78
2018-07-13T04:36:30.108Z,101670.34
2018-07-13T04:38:58.961Z,101674.66
2018-07-13T04:41:27.811Z,101675.27
2018-07-13T04:43:56.651Z,101678.39
2018-07-13T04:46:25.505Z,101679.25
2018-07-13T04:48:54.355Z,101683.81
2018-07-13T04:51:23.218Z,101682.45
2018-07-13T04:53:52.037Z,101683.82
2018-07-13T04:56:24.038Z,101686.36
2018-07-13T04:58:52.885Z,101690.23
2018-07-13T05:01:21.731Z,101692.86
2018-07-13T05:03:50.596Z,101688.83
2018-07-13T05:06:19.504Z,101689.29
2018-07-13T05:08:48.330Z,101690.86
2018-07-13T05:11:17.140Z,101687.25
2018-07-13T05:13:46.008Z,101681.14
2018-07-13T05:16:14.844Z,101683.89
2018-07-13T05:18:47.018Z,101682.94
2018-07-13T05:21:15.918Z,101694.44
2018-07-13T05:23:44.749Z,101693.30
2018-07-13T05:26:13.847Z,101695.45
2018-07-13T05:28:42.670Z,101693.60
2018-07-13T05:31:11.536Z,101688.56
2018-07-13T05:33:40.396Z,101691.59
2018-07-13T05:36:09.231Z,101689.86
2018-07-13T05:38:38.072Z,101687.17
2018-07-13T05:41:10.100Z,101687.98
2018-07-13T05:43:38.962Z,101684.17
2018-07-13T05:46:07.809Z,101695.98
2018-07-13T05:48:37.416Z,101695.88
2018-07-13T05:51:06.426Z,101698.31
2018-07-13T05:53:35.272Z,101689.71
2018-07-13T05:56:04.136Z,101695.83
2018-07-13T05:58:32.990Z,101698.97
2018-07-13T06:01:01.834Z,101700.78
2018-07-13T06:03:30.696Z,101696.11
2018-07-13T06:05:59.662Z,101700.52
2018-07-13T06:08:29.124Z,101694.63
2018-07-13T06:10:57.958Z,101693.29
2018-07-13T06:13:26.899Z,101693.03
2018-07-13T06:15:55.747Z,101703.69
2018-07-13T06:18:24.579Z,101701.27
2018-07-13T06:20:53.568Z,101703.95
2018-07-13T06:23:22.416Z,101700.54
2018-07-13T06:25:51.342Z,101702.64
2018-07-13T06:28:20.209Z,101710.31
2018-07-13T06:30:49.027Z,101704.07
2018-07-13T06:33:17.856Z,101700.98
2018-07-13T06:35:46.693Z,101704.58
2018-07-13T06:38:15.521Z,101700.59
2018-07-13T06:40:44.495Z,101700.59
2018-07-13T06:43:13.372Z,101699.22
2018-07-13T06:45:42.220Z,101701.73
2018-07-13T06:48:14.149Z,101711.87
2018-07-13T06:50:43.063Z,101704.86
2018-07-13T06:53:15.140Z,101704.90
2018-07-13T06:55:44.093Z,101703.89
2018-07-13T06:58:49.681Z,101703.61
2018-07-13T07:01:18.516Z,101709.79
2018-07-13T07:04:32.914Z,101705.09
2018-07-13T07:07:09.428Z,101701.05
2018-07-13T07:09:52.986Z,101703.31
2018-07-13T07:12:51.230Z,101707.61
2018-07-13T07:15:23.261Z,101711.32
2018-07-13T07:17:50.302Z,101705.60
2018-07-13T07:20:19.521Z,101714.32
2018-07-13T07:22:57.093Z,101711.92
2018-07-13T07:25:26.879Z,101704.54
2018-07-13T07:27:56.101Z,101710.08
2018-07-13T07:30:28.801Z,101713.11
2018-07-13T07:32:58.093Z,101717.05
2018-07-13T07:35:30.455Z,101714.84
2018-07-13T07:37:59.890Z,101711.80
2018-07-13T07:40:35.829Z,101716.81
2018-07-13T07:43:09.708Z,101721.97
2018-07-13T07:45:45.161Z,101722.81
2018-07-13T07:48:12.987Z,101717.42
2018-07-13T07:50:43.935Z,101714.47
2018-07-13T07:53:13.554Z,101712.25
2018-07-13T08:07:25.286Z,101709.31
2018-07-13T08:09:57.183Z,101705.95
2018-07-13T08:12:26.823Z,101693.94
2018-07-13T08:15:11.557Z,101699.88
2018-07-13T08:17:42.538Z,101703.82
2018-07-13T08:20:11.571Z,101697.00
2018-07-13T08:22:42.079Z,101701.59
2018-07-13T08:25:16.923Z,101696.41
2018-07-13T08:27:48.921Z,101699.02
2018-07-13T08:30:50.239Z,101697.97
2018-07-13T08:33:20.180Z,101697.88
2018-07-13T08:35:52.091Z,101693.30
2018-07-13T08:38:21.567Z,101695.21
2018-07-13T08:40:50.875Z,101690.34
2018-07-13T08:43:26.275Z,101693.64
2018-07-13T08:45:58.838Z,101692.78
2018-07-13T08:48:31.716Z,101687.73
2018-07-13T08:51:01.082Z,101692.92
2018-07-13T08:53:32.116Z,101687.02
2018-07-13T08:56:04.072Z,101688.14
2018-07-13T08:58:33.464Z,101682.12
2018-07-13T09:01:09.417Z,101677.67
2018-07-13T09:03:44.570Z,101673.84
2018-07-13T09:06:15.299Z,101674.58
2018-07-13T09:08:43.913Z,101675.48
2018-07-13T09:11:14.372Z,101678.06
2018-07-13T09:13:46.302Z,101676.69
2018-07-13T09:16:19.495Z,101681.69
2018-07-13T09:18:53.945Z,101678.81
2018-07-13T09:21:26.200Z,101679.21
2018-07-13T09:23:56.480Z,101686.66
2018-07-13T09:26:26.911Z,101685.71
2018-07-13T09:28:56.865Z,101686.17
2018-07-13T09:31:35.302Z,101680.56
2018-07-13T09:34:05.682Z,101675.49
2018-07-13T09:36:37.376Z,101676.92
2018-07-13T09:39:14.664Z,101678.34
2018-07-13T09:41:44.947Z,101674.39
2018-07-13T09:44:15.392Z,101676.07
2018-07-13T09:46:45.952Z,101674.00
2018-07-13T09:49:15.119Z,101679.19
2018-07-13T09:51:44.258Z,101671.06
2018-07-13T09:54:16.552Z,101676.47
2018-07-13T09:56:46.017Z,101670.00
2018-07-13T09:59:15.415Z,101675.95
2018-07-13T10:01:44.509Z,101663.14
2018-07-13T10:04:13.633Z,101671.68
2018-07-13T10:06:42.859Z,101667.50
2018-07-13T10:09:11.946Z,101670.23
2018-07-13T10:11:43.653Z,101672.15
2018-07-13T10:14:15.580Z,101678.77
2018-07-13T10:16:44.683Z,101676.05
2018-07-13T10:19:13.679Z,101663.84
2018-07-13T10:21:43.978Z,101671.02
2018-07-13T10:24:15.690Z,101664.56
2018-07-13T10:26:44.820Z,101666.27
2018-07-13T10:29:25.767Z,101660.70
2018-07-13T10:31:58.218Z,101664.47
2018-07-13T10:34:27.282Z,101662.57
2018-07-13T10:37:02.182Z,101661.02
2018-07-13T10:39:31.449Z,101671.25
2018-07-13T10:42:00.609Z,101659.03
2018-07-13T10:44:29.643Z,101661.97
2018-07-13T10:46:58.808Z,101667.31
2018-07-13T10:49:27.893Z,101655.13
2018-07-13T10:51:59.450Z,101654.80
2018-07-13T10:54:28.526Z,101653.59
2018-07-13T10:57:00.140Z,101651.38
2018-07-13T10:59:29.238Z,101646.75
2018-07-13T11:02:01.039Z,101646.96
2018-07-13T11:04:30.204Z,101637.16
2018-07-13T11:06:59.300Z,101637.48
2018-07-13T11:09:31.660Z,101642.38
2018-07-13T11:12:01.186Z,101639.28
2018-07-13T11:14:33.493Z,101639.66
2018-07-13T11:17:02.744Z,101638.89
2018-07-13T11:19:31.789Z,101632.23
2018-07-13T11:22:00.954Z,101631.48
2018-07-13T11:24:34.168Z,101631.36
2018-07-13T11:27:04.691Z,101631.81
2018-07-13T11:29:44.339Z,101629.86
2018-07-13T11:32:13.664Z,101636.95
2018-07-13T11:34:42.796Z,101626.48
2018-07-13T11:37:17.080Z,101629.89
2018-07-13T11:39:54.338Z,101627.59
2018-07-13T11:42:23.329Z,101630.80
2018-07-13T11:44:52.525Z,101628.05
2018-07-13T11:47:21.762Z,101625.73
2018-07-13T11:49:53.836Z,101629.98
2018-07-13T11:52:22.910Z,101620.48
2018-07-13T11:54:55.321Z,101615.53
2018-07-13T11:57:26.852Z,101618.80
2018-07-13T11:59:55.894Z,101622.95
2018-07-13T12:02:24.882Z,101614.33
2018-07-13T12:04:54.138Z,101624.08
2018-07-13T12:07:23.192Z,101618.47
2018-07-13T12:09:52.266Z,101620.37
2018-07-13T12:12:21.382Z,101617.68
2018-07-13T12:14:50.438Z,101622.00
2018-07-13T12:17:19.634Z,101611.16
2018-07-13T12:19:48.696Z,101605.28
2018-07-13T12:22:17.779Z,101609.44
2018-07-13T12:24:48.448Z,101604.96
2018-07-13T12:27:15.969Z,101603.27
2018-07-13T12:29:45.128Z,101602.42
2018-07-13T12:32:15.792Z,101601.84
2018-07-13T12:34:44.903Z,101599.03
2018-07-13T12:37:14.013Z,101593.09
2018-07-13T12:39:43.144Z,101589.99
2018-07-13T12:42:12.108Z,101588.23
2018-07-13T12:44:41.277Z,101585.95
2018-07-13T12:47:10.599Z,101581.99
2018-07-13T12:49:39.870Z,101583.92
2018-07-13T12:52:26.563Z,101572.44
2018-07-13T12:54:58.251Z,101573.81
2018-07-13T12:57:27.674Z,101570.19
2018-07-13T12:59:56.748Z,101570.19
2018-07-13T13:02:28.735Z,101574.28
2018-07-13T13:04:57.860Z,101570.81
2018-07-13T13:07:27.080Z,101566.69
2018-07-13T13:09:59.190Z,101566.16
2018-07-13T13:12:29.979Z,101561.77
2018-07-13T14:45:09.657Z,101541.05
2018-07-13T14:47:41.357Z,101527.45
2018-07-13T14:50:10.450Z,101529.09
2018-07-13T14:52:40.011Z,101527.72
2018-07-13T14:55:09.060Z,101519.14
2018-07-13T14:57:39.040Z,101518.58
2018-07-13T15:00:08.083Z,101531.30
2018-07-13T15:02:39.356Z,101524.58
2018-07-13T15:05:08.676Z,101522.94
2018-07-13T15:07:37.899Z,101522.88
2018-07-13T15:10:07.151Z,101522.38
2018-07-13T15:12:36.069Z,101514.20
2018-07-13T15:15:05.240Z,101513.53
2018-07-13T15:17:34.347Z,101509.36
2018-07-13T15:20:06.599Z,101515.79
2018-07-13T15:22:36.510Z,101520.55
2018-07-13T15:25:11.341Z,101519.52
2018-07-13T15:27:48.205Z,101507.13
2018-07-13T15:30:32.160Z,101515.05
2018-07-13T15:48:07.053Z,101525.48
2018-07-13T15:50:40.725Z,101523.12
2018-07-13T15:53:09.755Z,101519.84
2018-07-13T15:55:57.037Z,101516.44
2018-07-13T15:58:27.159Z,101520.09
2018-07-13T16:00:56.446Z,101511.20
2018-07-13T16:03:25.498Z,101514.71
2018-07-13T16:05:54.857Z,101512.75
2018-07-13T16:08:27.575Z,101515.55
2018-07-13T16:10:56.446Z,101506.59
2018-07-13T16:13:25.293Z,101514.05
2018-07-13T16:15:54.116Z,101511.00
2018-07-13T16:18:22.991Z,101514.31
2018-07-13T16:20:51.794Z,101518.63
2018-07-13T16:23:20.614Z,101509.28
2018-07-13T16:25:49.459Z,101514.97
2018-07-13T16:28:18.428Z,101516.22
2018-07-13T16:30:47.295Z,101518.36
2018-07-13T16:33:16.141Z,101514.78
2018-07-13T16:35:45.122Z,101516.90
2018-07-13T16:38:14.194Z,101518.50
2018-07-13T16:40:43.046Z,101519.72
2018-07-13T16:43:11.885Z,101519.05
2018-07-13T16:45:40.993Z,101516.89
2018-07-13T16:48:09.838Z,101519.98
2018-07-13T16:54:22.801Z,101515.14
2018-07-13T16:56:51.657Z,101519.78
2018-07-13T16:59:20.489Z,101523.91
2018-07-13T17:01:49.324Z,101513.77
2018-07-13T17:04:18.161Z,101513.75
2018-07-13T17:06:47.004Z,101513.53
2018-07-13T17:09:15.867Z,101509.72
2018-07-13T17:11:44.705Z,101516.55
2018-07-13T17:14:19.782Z,101516.53
2018-07-13T17:16:48.636Z,101519.42
2018-07-13T17:19:17.996Z,101521.79
2018-07-13T17:21:46.823Z,101524.23
2018-07-13T17:24:15.650Z,101525.56
2018-07-13T17:26:44.477Z,101522.20
2018-07-13T17:29:13.367Z,101524.83
2018-07-13T17:31:42.171Z,101535.60
2018-07-13T17:34:11.029Z,101531.19
2018-07-13T17:36:46.010Z,101528.28
2018-07-13T17:39:14.855Z,101530.55
2018-07-13T17:41:43.678Z,101527.45
2018-07-13T17:44:12.557Z,101525.22
2018-07-13T17:46:41.431Z,101529.45
2018-07-13T17:49:10.307Z,101527.08
2018-07-13T17:51:39.156Z,101533.31
2018-07-13T17:54:08.064Z,101535.73
2018-07-13T17:56:36.897Z,101531.84
2018-07-13T17:59:05.996Z,101534.25
2018-07-13T18:01:34.844Z,101529.81
2018-07-13T18:04:03.722Z,101527.39
2018-07-13T18:06:32.573Z,101529.84
2018-07-13T18:09:01.426Z,101529.62
2018-07-13T18:11:30.342Z,101525.89
2018-07-13T18:13:59.267Z,101527.98
2018-07-13T18:16:28.106Z,101525.78
2018-07-13T18:18:56.946Z,101527.88
2018-07-13T18:21:32.263Z,101529.27
2018-07-13T18:24:01.021Z,101527.00
2018-07-13T18:26:29.880Z,101530.06
2018-07-13T18:28:58.736Z,101530.56
2018-07-13T18:31:28.204Z,101529.42
2018-07-13T18:33:57.088Z,101532.61
2018-07-13T18:36:25.957Z,101528.87
2018-07-13T18:38:54.807Z,101535.88
2018-07-13T18:41:23.834Z,101532.67
2018-07-13T18:43:52.693Z,101538.41
2018-07-13T18:46:21.575Z,101537.45
2018-07-13T18:48:50.623Z,101540.27
2018-07-13T18:51:19.484Z,101539.58
2018-07-13T18:53:48.329Z,101543.36
2018-07-13T18:56:17.264Z,101545.50
2018-07-13T18:58:46.231Z,101545.22
2018-07-13T19:01:15.075Z,101550.98
2018-07-13T19:03:43.906Z,101550.38
2018-07-13T19:06:15.797Z,101552.18
2018-07-13T19:08:44.899Z,101550.16
2018-07-13T19:11:13.781Z,101546.23
2018-07-13T19:13:42.681Z,101552.13
2018-07-13T19:16:11.525Z,101552.33
2018-07-13T19:18:40.345Z,101550.14
2018-07-13T19:21:09.209Z,101555.10
2018-07-13T19:23:38.165Z,101552.88
2018-07-13T19:26:07.021Z,101555.77
2018-07-13T19:28:37.709Z,101554.39
2018-07-13T19:31:06.643Z,101560.03
2018-07-13T19:33:35.533Z,101560.02
2018-07-13T19:36:04.379Z,101558.63
2018-07-13T19:38:33.125Z,101560.60
2018-07-13T19:41:01.979Z,101563.78
2018-07-13T19:43:30.839Z,101570.29
2018-07-13T19:45:59.712Z,101578.03
2018-07-13T19:48:28.555Z,101579.41
2018-07-13T19:50:57.524Z,101583.22
2018-07-13T19:53:26.339Z,101579.47
2018-07-13T19:55:55.332Z,101586.13
2018-07-13T19:58:24.156Z,101583.67
2018-07-13T20:00:53.034Z,101589.14
2018-07-13T20:03:21.867Z,101584.77
2018-07-13T20:05:50.708Z,101582.12
2018-07-13T20:08:19.573Z,101589.70
2018-07-13T20:10:48.418Z,101594.08
2018-07-13T20:13:17.400Z,101596.13
2018-07-13T20:15:46.241Z,101594.48
2018-07-13T20:18:15.177Z,101597.74
2018-07-13T20:20:44.043Z,101600.40
2018-07-13T20:23:12.990Z,101596.43
2018-07-13T20:25:41.881Z,101597.87
2018-07-13T20:28:10.758Z,101599.31
2018-07-13T20:30:39.826Z,101601.55
2018-07-13T20:33:08.730Z,101600.03
2018-07-13T20:35:41.047Z,101598.12
2018-07-13T20:38:09.898Z,101602.50
2018-07-13T20:40:38.791Z,101604.70
2018-07-13T20:43:07.695Z,101604.59
2018-07-13T20:45:36.662Z,101603.98
2018-07-13T20:48:05.566Z,101612.41
2018-07-13T20:50:34.443Z,101610.82
2018-07-13T20:53:03.334Z,101614.24
2018-07-13T20:55:32.190Z,101618.10
2018-07-13T20:58:01.247Z,101622.51
2018-07-13T21:00:31.231Z,101621.17
2018-07-13T21:03:00.275Z,101622.67
2018-07-13T21:05:29.222Z,101624.73
2018-07-13T21:07:58.894Z,101623.33
2018-07-13T21:10:28.754Z,101627.58
2018-07-13T21:12:58.226Z,101622.25
2018-07-13T21:15:27.365Z,101624.89
2018-07-13T21:17:56.311Z,101624.67
2018-07-13T21:20:25.190Z,101629.22
2018-07-13T21:22:54.012Z,101628.77
2018-07-13T21:25:22.893Z,101623.54
2018-07-13T21:27:51.856Z,101625.29
2018-07-13T21:30:20.714Z,101631.50
2018-07-13T21:32:49.581Z,101630.38
2018-07-13T21:35:18.468Z,101626.53
2018-07-13T21:37:47.321Z,101633.27
2018-07-13T21:41:10.990Z,101628.45
2018-07-13T21:43:40.029Z,101633.97
2018-07-13T21:46:08.890Z,101633.20
2018-07-13T21:48:37.720Z,101630.84
2018-07-13T21:51:06.576Z,101629.98
2018-07-13T21:53:35.421Z,101634.79
2018-07-13T21:56:04.269Z,101631.36
2018-07-13T21:58:33.165Z,101639.63
2018-07-13T22:01:02.008Z,101641.52
2018-07-13T22:06:59.939Z,101638.38
2018-07-13T22:09:28.909Z,101639.32
2018-07-13T22:11:57.849Z,101643.69
2018-07-13T22:14:26.692Z,101636.62
2018-07-13T22:16:55.522Z,101621.26
2018-07-13T22:19:24.360Z,101634.05
2018-07-13T22:21:53.196Z,101633.89
2018-07-13T22:24:22.038Z,101631.67
2018-07-13T22:26:50.968Z,101635.00
2018-07-13T22:29:19.847Z,101645.84
2018-07-13T22:31:48.698Z,101645.74
2018-07-13T22:34:17.524Z,101647.31
2018-07-13T22:36:46.336Z,101650.65
2018-07-13T22:39:15.212Z,101651.73
2018-07-13T22:41:44.077Z,101654.52
2018-07-13T22:44:12.911Z,101662.61
2018-07-13T22:46:41.775Z,101666.95
2018-07-13T22:49:17.756Z,101669.88
2018-07-13T22:51:46.611Z,101672.51
2018-07-13T22:54:15.449Z,101671.48
2018-07-13T22:56:44.325Z,101677.55
2018-07-13T22:59:13.169Z,101675.88
2018-07-13T23:01:42.021Z,101676.73
2018-07-13T23:04:10.863Z,101679.48
2018-07-13T23:06:39.822Z,101680.52
2018-07-13T23:09:08.796Z,101677.03
2018-07-13T23:11:37.666Z,101673.64
2018-07-13T23:14:06.562Z,101674.37
2018-07-13T23:16:35.393Z,101669.94
2018-07-13T23:19:04.230Z,101670.28
2018-07-13T23:21:33.056Z,101672.89
2018-07-13T23:24:01.907Z,101672.34
2018-07-13T23:26:30.752Z,101677.53
2018-07-13T23:28:59.588Z,101675.30
2018-07-13T23:31:28.423Z,101675.80
2018-07-13T23:34:58.021Z,101682.67
2018-07-13T23:37:26.865Z,101672.77
2018-07-13T23:39:55.699Z,101683.73
2018-07-13T23:42:24.551Z,101678.60
2018-07-13T23:44:53.650Z,101684.78
2018-07-13T23:47:22.498Z,101682.38
2018-07-13T23:49:51.322Z,101680.68
2018-07-13T23:52:20.158Z,101680.34
2018-07-13T23:54:49.004Z,101677.91
2018-07-13T23:57:19.126Z,101677.76
2018-07-13T23:59:47.973Z,101669.85
